createdAt,value
2024-02-29T00:01:42.202Z,20.28
2024-02-29T00:04:10.387Z,20.42
2024-02-29T00:06:38.575Z,20.57
2024-02-29T00:09:06.932Z,20.74
2024-02-29T00:11:35.131Z,20.69
2024-02-29T00:14:03.542Z,21.43
2024-02-29T00:16:32.816Z,20.60
2024-02-29T00:19:00.949Z,20.49
2024-02-29T00:21:30.659Z,20.63
2024-02-29T00:23:58.826Z,20.03
2024-02-29T00:26:27.585Z,20.24
2024-02-29T00:28:55.893Z,20.19
2024-02-29T00:31:25.839Z,20.46
2024-02-29T00:33:54.160Z,20.85
2024-02-29T00:36:22.532Z,21.12
2024-02-29T00:38:58.799Z,21.18
2024-02-29T00:41:34.308Z,21.65
2024-02-29T00:44:02.482Z,21.78
2024-02-29T00:46:30.694Z,21.85
2024-02-29T00:48:59.197Z,21.65
2024-02-29T00:51:27.455Z,20.69
2024-02-29T00:53:55.735Z,20.90
2024-02-29T00:56:23.773Z,20.80
2024-02-29T00:58:52.380Z,20.37
2024-02-29T01:01:20.841Z,19.61
2024-02-29T01:03:49.226Z,18.74
2024-02-29T01:06:17.638Z,17.77
2024-02-29T01:08:46.070Z,18.38
2024-02-29T01:11:14.483Z,20.45
2024-02-29T01:13:42.925Z,25.83
2024-02-29T01:16:11.290Z,22.75
2024-02-29T01:18:41.492Z,21.54
2024-02-29T01:21:10.235Z,20.87
2024-02-29T01:23:38.360Z,20.09
2024-02-29T01:26:07.329Z,20.20
2024-02-29T01:28:35.759Z,20.74
2024-02-29T01:31:05.421Z,21.16
2024-02-29T01:33:33.738Z,23.17
2024-02-29T01:36:02.088Z,22.65
2024-02-29T01:38:30.098Z,21.34
2024-02-29T01:40:58.316Z,23.10
2024-02-29T01:43:26.418Z,24.34
2024-02-29T01:46:11.359Z,27.43
2024-02-29T01:48:40.064Z,27.63
2024-02-29T01:51:08.321Z,19.89
2024-02-29T01:53:36.882Z,26.42
2024-02-29T01:56:05.844Z,23.01
2024-02-29T01:58:35.263Z,17.28
2024-02-29T02:01:03.718Z,16.56
2024-02-29T02:03:32.072Z,16.55
2024-02-29T02:06:00.598Z,16.33
2024-02-29T02:08:31.451Z,18.62
2024-02-29T02:10:59.695Z,19.87
2024-02-29T02:13:28.100Z,25.02
2024-02-29T02:15:56.267Z,20.97
2024-02-29T02:18:24.573Z,24.94
2024-02-29T02:20:55.587Z,28.25
2024-02-29T02:23:23.683Z,24.45
2024-02-29T02:25:52.278Z,24.20
2024-02-29T02:28:20.412Z,23.67
2024-02-29T02:30:48.695Z,25.99
2024-02-29T02:33:17.008Z,30.53
2024-02-29T02:35:45.289Z,27.80
2024-02-29T02:38:14.028Z,30.65
2024-02-29T02:40:42.118Z,31.24
2024-02-29T02:43:10.440Z,30.64
2024-02-29T02:45:38.850Z,30.91
2024-02-29T02:48:07.654Z,31.23
2024-02-29T02:50:35.929Z,31.92
2024-02-29T02:53:05.583Z,31.68
2024-02-29T02:55:33.824Z,31.66
2024-02-29T02:58:02.098Z,32.53
2024-02-29T03:00:30.525Z,32.17
2024-02-29T03:03:00.869Z,31.78
2024-02-29T03:05:29.314Z,32.19
2024-02-29T03:07:57.543Z,32.40
2024-02-29T03:10:26.039Z,32.17
2024-02-29T03:12:54.427Z,32.22
2024-02-29T03:15:22.610Z,31.65
2024-02-29T03:17:50.906Z,31.64
2024-02-29T03:20:19.783Z,31.21
2024-02-29T03:22:48.048Z,30.71
2024-02-29T03:25:16.198Z,29.90
2024-02-29T03:27:44.706Z,30.79
2024-02-29T03:30:13.232Z,30.17
2024-02-29T03:32:41.564Z,30.92
2024-02-29T03:35:09.725Z,30.14
2024-02-29T03:37:38.403Z,29.39
2024-02-29T03:40:07.788Z,29.58
2024-02-29T03:42:36.061Z,28.83
2024-02-29T03:45:04.748Z,28.30
2024-02-29T03:47:33.144Z,28.43
2024-02-29T03:50:01.665Z,28.33
2024-02-29T03:52:29.810Z,28.20
2024-02-29T03:54:58.196Z,27.96
2024-02-29T03:57:26.350Z,27.75
2024-02-29T03:59:54.455Z,25.87
2024-02-29T04:02:23.986Z,25.55
2024-02-29T04:04:52.675Z,24.55
2024-02-29T04:07:22.251Z,25.27
2024-02-29T04:09:56.018Z,24.60
2024-02-29T04:12:24.617Z,24.21
2024-02-29T04:14:52.735Z,22.33
2024-02-29T04:17:20.931Z,21.68
2024-02-29T04:19:49.153Z,21.42
2024-02-29T04:22:17.536Z,21.09
2024-02-29T04:24:45.970Z,20.89
2024-02-29T04:27:14.410Z,22.06
2024-02-29T04:29:45.059Z,21.88
2024-02-29T04:32:13.337Z,22.13
2024-02-29T04:34:42.799Z,21.64
2024-02-29T04:37:10.906Z,20.52
2024-02-29T04:39:39.254Z,20.91
2024-02-29T04:42:08.750Z,21.73
2024-02-29T04:44:36.950Z,25.20
2024-02-29T04:47:06.246Z,27.34
2024-02-29T04:49:34.963Z,27.51
2024-02-29T04:52:04.058Z,25.06
2024-02-29T04:54:32.361Z,23.21
2024-02-29T04:57:00.697Z,21.89
2024-02-29T04:59:29.152Z,21.13
2024-02-29T05:01:57.426Z,21.43
2024-02-29T05:04:25.887Z,21.73
2024-02-29T05:06:57.611Z,20.51
2024-02-29T05:09:26.351Z,21.53
2024-02-29T05:11:57.391Z,21.53
2024-02-29T05:14:25.683Z,21.08
2024-02-29T05:16:53.848Z,21.89
2024-02-29T05:19:23.005Z,21.53
2024-02-29T05:21:52.966Z,21.14
2024-02-29T05:24:21.348Z,21.08
2024-02-29T05:26:49.530Z,21.29
2024-02-29T05:29:17.959Z,21.13
2024-02-29T05:31:51.433Z,21.62
2024-02-29T05:34:21.589Z,24.78
2024-02-29T05:36:49.919Z,28.69
2024-02-29T05:39:18.570Z,28.59
2024-02-29T05:41:46.861Z,28.63
2024-02-29T05:44:15.338Z,27.22
2024-02-29T05:46:44.456Z,23.42
2024-02-29T05:49:12.800Z,22.74
2024-02-29T05:51:41.227Z,23.67
2024-02-29T05:54:09.763Z,25.88
2024-02-29T05:56:38.360Z,28.97
2024-02-29T05:59:07.191Z,30.73
2024-02-29T06:01:35.688Z,37.45
2024-02-29T06:04:04.419Z,30.93
2024-02-29T06:06:33.324Z,30.77
2024-02-29T06:09:01.582Z,30.99
2024-02-29T06:11:29.779Z,30.27
2024-02-29T06:13:59.092Z,30.04
2024-02-29T06:16:28.964Z,30.44
2024-02-29T06:18:57.684Z,29.91
2024-02-29T06:21:26.133Z,29.54
2024-02-29T06:23:58.237Z,29.22
2024-02-29T06:26:26.674Z,29.46
2024-02-29T06:28:54.828Z,29.76
2024-02-29T06:31:26.892Z,30.55
2024-02-29T06:33:55.341Z,30.81
2024-02-29T06:36:23.769Z,29.50
2024-02-29T06:38:52.252Z,30.11
2024-02-29T06:41:20.424Z,31.00
2024-02-29T06:43:48.515Z,30.95
2024-02-29T06:46:17.019Z,31.23
2024-02-29T06:48:45.239Z,31.55
2024-02-29T06:51:13.548Z,31.46
2024-02-29T06:53:41.789Z,32.29
2024-02-29T06:56:09.926Z,31.37
2024-02-29T06:58:38.319Z,31.55
2024-02-29T07:01:07.688Z,31.92
2024-02-29T07:03:36.181Z,32.18
2024-02-29T07:06:05.537Z,31.47
2024-02-29T07:08:37.367Z,31.47
2024-02-29T07:11:05.929Z,32.09
2024-02-29T07:13:34.478Z,32.67
2024-02-29T07:16:04.285Z,33.09
2024-02-29T07:18:32.623Z,33.67
2024-02-29T07:21:01.274Z,33.76
2024-02-29T07:23:29.677Z,36.06
2024-02-29T07:25:57.822Z,36.52
2024-02-29T07:28:26.492Z,37.89
2024-02-29T07:30:55.126Z,37.06
2024-02-29T07:33:23.946Z,37.71
2024-02-29T07:35:52.153Z,38.00
2024-02-29T07:38:20.440Z,38.82
2024-02-29T07:40:49.002Z,38.98
2024-02-29T07:43:17.325Z,39.62
2024-02-29T07:45:45.777Z,38.13
2024-02-29T07:48:15.770Z,39.28
2024-02-29T07:50:44.339Z,38.65
2024-02-29T07:53:12.484Z,37.31
2024-02-29T07:55:41.116Z,37.59
2024-02-29T07:58:09.862Z,37.43
2024-02-29T08:00:39.176Z,38.41
2024-02-29T08:03:07.538Z,39.91
2024-02-29T08:05:36.215Z,40.46
2024-02-29T08:08:04.867Z,42.20
2024-02-29T08:10:33.256Z,43.38
2024-02-29T08:13:01.798Z,44.85
2024-02-29T08:15:30.244Z,45.84
2024-02-29T08:17:59.442Z,46.76
2024-02-29T08:20:27.748Z,46.12
2024-02-29T08:22:58.186Z,46.90
2024-02-29T08:25:27.842Z,48.22
2024-02-29T08:27:56.206Z,49.32
2024-02-29T08:30:24.365Z,49.66
2024-02-29T08:32:52.515Z,49.22
2024-02-29T08:35:20.877Z,48.71
2024-02-29T08:37:50.135Z,48.60
2024-02-29T08:40:18.530Z,46.66
2024-02-29T08:42:47.080Z,45.33
2024-02-29T08:45:15.189Z,43.16
2024-02-29T08:47:43.671Z,40.92
2024-02-29T08:50:12.046Z,40.31
2024-02-29T08:52:42.856Z,40.94
2024-02-29T08:55:11.367Z,40.45
2024-02-29T08:57:39.775Z,40.64
2024-02-29T09:00:09.068Z,42.43
2024-02-29T09:02:37.383Z,41.36
2024-02-29T09:05:06.453Z,40.80
2024-02-29T09:07:35.122Z,40.93
2024-02-29T09:10:03.979Z,40.06
2024-02-29T09:12:32.435Z,40.11
2024-02-29T09:15:03.018Z,39.33
2024-02-29T09:17:31.217Z,39.53
2024-02-29T09:19:59.493Z,40.31
2024-02-29T09:22:27.758Z,40.95
2024-02-29T09:24:55.927Z,40.86
2024-02-29T09:27:24.252Z,40.83
2024-02-29T09:29:52.461Z,41.60
2024-02-29T09:32:20.616Z,43.25
2024-02-29T09:34:52.103Z,43.83
2024-02-29T09:37:20.964Z,43.73
2024-02-29T09:39:49.381Z,44.52
2024-02-29T09:42:17.997Z,46.29
2024-02-29T09:44:47.157Z,46.62
2024-02-29T09:47:15.693Z,46.72
2024-02-29T09:49:48.907Z,45.88
2024-02-29T09:52:17.740Z,45.77
2024-02-29T09:54:47.169Z,45.82
2024-02-29T09:57:15.512Z,46.24
2024-02-29T09:59:44.202Z,46.60
2024-02-29T10:02:18.954Z,48.19
2024-02-29T10:04:47.791Z,48.10
2024-02-29T10:07:16.502Z,47.79
2024-02-29T10:09:45.571Z,46.78
2024-02-29T10:12:19.168Z,46.77
2024-02-29T10:14:47.915Z,47.13
2024-02-29T10:17:16.227Z,48.24
2024-02-29T10:19:44.350Z,48.33
2024-02-29T10:22:12.588Z,49.23
2024-02-29T10:24:41.085Z,50.39
2024-02-29T10:27:09.213Z,51.90
2024-02-29T10:29:37.517Z,50.37
2024-02-29T10:32:06.147Z,51.75
2024-02-29T10:34:35.975Z,52.52
2024-02-29T10:37:04.874Z,51.81
2024-02-29T10:39:34.078Z,50.04
2024-02-29T10:42:02.191Z,49.42
2024-02-29T10:44:31.800Z,48.20
2024-02-29T10:47:03.946Z,47.70
2024-02-29T10:49:35.002Z,46.10
2024-02-29T10:52:12.620Z,45.86
2024-02-29T10:55:07.306Z,45.42
2024-02-29T10:58:00.479Z,45.49
2024-02-29T11:00:28.708Z,45.32
2024-02-29T11:02:58.387Z,44.07
2024-02-29T11:05:26.835Z,43.86
2024-02-29T11:07:55.362Z,43.71
2024-02-29T11:10:23.669Z,42.71
2024-02-29T11:12:57.752Z,43.34
2024-02-29T11:15:27.780Z,42.24
2024-02-29T11:17:56.354Z,40.88
2024-02-29T11:20:25.762Z,41.71
2024-02-29T11:23:10.300Z,40.68
2024-02-29T11:25:44.010Z,41.02
2024-02-29T11:28:12.369Z,40.41
2024-02-29T11:30:42.539Z,40.71
2024-02-29T11:33:11.254Z,40.02
2024-02-29T11:35:39.800Z,41.20
2024-02-29T11:38:08.970Z,40.30
2024-02-29T11:40:37.362Z,39.49
2024-02-29T11:43:08.895Z,40.10
2024-02-29T11:45:39.098Z,39.99
2024-02-29T11:48:07.537Z,39.25
2024-02-29T11:50:36.091Z,40.35
2024-02-29T11:53:04.622Z,39.14
2024-02-29T11:55:32.829Z,38.89
2024-02-29T11:58:03.192Z,38.93
2024-02-29T12:00:31.617Z,38.22
2024-02-29T12:02:59.757Z,38.66
2024-02-29T12:05:28.114Z,39.12
2024-02-29T12:07:56.399Z,39.91
2024-02-29T12:10:25.000Z,41.33
2024-02-29T12:12:53.226Z,41.01
2024-02-29T12:15:21.393Z,40.33
2024-02-29T12:17:49.678Z,40.84
2024-02-29T12:20:18.544Z,42.00
2024-02-29T12:22:50.164Z,42.79
2024-02-29T12:25:21.007Z,41.30
2024-02-29T12:27:49.310Z,40.50
2024-02-29T12:30:19.247Z,41.28
2024-02-29T12:32:49.947Z,39.89
2024-02-29T12:35:19.331Z,39.51
2024-02-29T12:37:47.558Z,38.39
2024-02-29T12:40:16.045Z,37.35
2024-02-29T12:42:44.531Z,36.44
2024-02-29T12:45:16.039Z,36.07
2024-02-29T12:47:46.424Z,36.02
2024-02-29T12:50:14.815Z,36.04
2024-02-29T12:52:43.078Z,35.37
2024-02-29T12:55:11.572Z,34.37
2024-02-29T12:57:39.879Z,32.22
2024-02-29T13:00:09.039Z,30.59
2024-02-29T13:02:37.350Z,31.92
2024-02-29T13:05:06.527Z,31.35
2024-02-29T13:07:35.150Z,27.55
2024-02-29T13:10:04.425Z,24.03
2024-02-29T13:12:32.701Z,27.01
2024-02-29T13:15:01.389Z,31.27
2024-02-29T13:17:29.798Z,33.98
2024-02-29T13:19:58.338Z,34.95
2024-02-29T13:22:26.530Z,35.55
2024-02-29T13:24:54.769Z,35.94
2024-02-29T13:27:23.315Z,35.47
2024-02-29T13:29:51.367Z,34.71
2024-02-29T13:32:19.726Z,34.66
2024-02-29T13:34:47.916Z,34.03
2024-02-29T13:37:17.418Z,34.32
2024-02-29T13:39:47.865Z,34.22
2024-02-29T13:42:16.189Z,33.98
2024-02-29T13:44:46.643Z,34.01
2024-02-29T13:47:15.100Z,34.27
2024-02-29T13:49:43.676Z,33.56
2024-02-29T13:52:18.266Z,33.25
2024-02-29T13:54:47.112Z,32.89
2024-02-29T13:57:15.442Z,31.95
2024-02-29T13:59:43.952Z,32.34
2024-02-29T14:02:13.406Z,32.00
2024-02-29T14:04:41.900Z,31.61
2024-02-29T14:07:10.205Z,31.51
2024-02-29T14:09:39.473Z,30.91
2024-02-29T14:12:08.054Z,31.44
2024-02-29T14:14:36.282Z,31.70
2024-02-29T14:17:04.670Z,29.65
2024-02-29T14:19:33.527Z,27.87
2024-02-29T14:22:02.195Z,25.12
2024-02-29T14:24:30.621Z,30.96
2024-02-29T14:26:58.861Z,25.78
2024-02-29T14:29:27.092Z,25.44
2024-02-29T14:31:55.502Z,24.85
2024-02-29T14:34:23.723Z,24.82
2024-02-29T14:36:52.474Z,23.29
2024-02-29T14:39:21.343Z,20.38
2024-02-29T14:41:49.586Z,21.25
2024-02-29T14:44:18.077Z,20.27
2024-02-29T14:46:46.647Z,20.23
2024-02-29T14:49:15.670Z,19.10
2024-02-29T14:51:44.356Z,17.29
2024-02-29T14:54:12.775Z,16.25
2024-02-29T14:56:41.531Z,16.18
2024-02-29T14:59:09.785Z,16.44
2024-02-29T15:01:38.118Z,15.67
2024-02-29T15:04:06.381Z,16.01
2024-02-29T15:06:38.090Z,16.25
2024-02-29T15:09:06.202Z,15.90
2024-02-29T15:11:34.317Z,16.63
2024-02-29T15:14:02.450Z,16.84
2024-02-29T15:16:31.225Z,16.77
2024-02-29T15:18:59.724Z,19.54
2024-02-29T15:21:28.015Z,20.62
2024-02-29T15:23:57.579Z,22.00
2024-02-29T15:26:25.886Z,23.10
2024-02-29T15:28:54.307Z,24.88
2024-02-29T15:31:22.728Z,24.59
2024-02-29T15:33:51.600Z,24.73
2024-02-29T15:36:19.969Z,23.40
2024-02-29T15:38:48.071Z,23.84
2024-02-29T15:41:16.258Z,23.79
2024-02-29T15:43:44.338Z,23.54
2024-02-29T15:46:13.017Z,24.10
2024-02-29T15:48:41.626Z,26.32
2024-02-29T15:51:10.148Z,26.35
2024-02-29T15:53:38.715Z,25.50
2024-02-29T15:56:07.248Z,25.82
2024-02-29T15:58:35.515Z,26.74
2024-02-29T16:01:03.891Z,26.89
2024-02-29T16:03:32.097Z,26.89
2024-02-29T16:06:00.239Z,27.59
2024-02-29T16:08:28.527Z,26.99
2024-02-29T16:10:56.874Z,28.85
2024-02-29T16:13:25.774Z,29.71
2024-02-29T16:15:54.174Z,29.75
2024-02-29T16:18:22.233Z,30.13
2024-02-29T16:20:52.568Z,30.03
2024-02-29T16:23:20.620Z,29.42
2024-02-29T16:25:48.817Z,28.93
2024-02-29T16:28:18.766Z,28.91
2024-02-29T16:30:47.006Z,28.84
2024-02-29T16:33:15.139Z,28.85
2024-02-29T16:35:43.237Z,27.79
2024-02-29T16:38:11.394Z,28.72
2024-02-29T16:40:39.609Z,31.54
2024-02-29T16:43:07.965Z,35.27
2024-02-29T16:45:36.386Z,35.44
2024-02-29T16:48:05.214Z,37.01
2024-02-29T16:50:33.413Z,38.06
2024-02-29T16:53:01.518Z,37.22
2024-02-29T16:55:29.680Z,36.95
2024-02-29T16:57:58.128Z,36.05
2024-02-29T17:00:26.474Z,36.37
2024-02-29T17:02:54.737Z,35.66
2024-02-29T17:05:22.838Z,35.67
2024-02-29T17:07:51.062Z,33.43
2024-02-29T17:10:19.359Z,35.89
2024-02-29T17:12:47.500Z,35.34
2024-02-29T17:15:15.769Z,33.15
2024-02-29T17:17:44.227Z,33.43
2024-02-29T17:20:12.598Z,33.63
2024-02-29T17:22:41.080Z,34.02
2024-02-29T17:25:09.769Z,34.46
2024-02-29T17:27:38.154Z,32.90
2024-02-29T17:30:08.356Z,32.41
2024-02-29T17:32:36.501Z,31.99
2024-02-29T17:35:06.311Z,32.19
2024-02-29T17:37:34.461Z,29.97
2024-02-29T17:40:02.620Z,29.62
2024-02-29T17:42:30.956Z,28.67
2024-02-29T17:44:59.097Z,30.65
2024-02-29T17:47:27.327Z,30.28
2024-02-29T17:49:55.425Z,31.56
2024-02-29T17:52:23.629Z,30.80
2024-02-29T17:54:52.111Z,29.69
2024-02-29T17:57:20.357Z,29.74
2024-02-29T17:59:48.483Z,28.78
2024-02-29T18:02:16.908Z,25.85
2024-02-29T18:04:47.254Z,25.42
2024-02-29T18:07:15.594Z,24.94
2024-02-29T18:09:44.013Z,25.75
2024-02-29T18:12:12.657Z,32.16
2024-02-29T18:14:41.242Z,33.40
2024-02-29T18:17:10.447Z,31.78
2024-02-29T18:19:39.122Z,36.52
2024-02-29T18:22:07.620Z,39.26
2024-02-29T18:24:39.306Z,45.48
2024-02-29T18:27:09.171Z,44.32
2024-02-29T18:29:37.367Z,43.55
2024-02-29T18:32:06.580Z,44.83
2024-02-29T18:34:34.841Z,41.28
2024-02-29T18:37:03.185Z,34.56
2024-02-29T18:39:31.333Z,33.55
2024-02-29T18:41:59.682Z,36.38
2024-02-29T18:44:27.809Z,39.92
2024-02-29T18:46:56.306Z,40.53
2024-02-29T18:49:25.111Z,38.14
2024-02-29T18:51:53.402Z,36.29
2024-02-29T18:54:21.494Z,36.46
2024-02-29T18:56:49.784Z,38.59
2024-02-29T18:59:18.453Z,40.99
2024-02-29T19:01:46.990Z,42.29
2024-02-29T19:04:18.641Z,41.25
2024-02-29T19:06:49.931Z,42.65
2024-02-29T19:09:18.192Z,43.39
2024-02-29T19:11:46.832Z,46.15
2024-02-29T19:14:15.651Z,44.47
2024-02-29T19:16:43.988Z,40.97
2024-02-29T19:19:15.172Z,41.59
2024-02-29T19:21:43.467Z,40.69
2024-02-29T19:24:12.682Z,42.14
2024-02-29T19:26:41.011Z,41.45
2024-02-29T19:29:09.406Z,40.74
2024-02-29T19:31:37.525Z,40.62
2024-02-29T19:34:05.869Z,38.90
2024-02-29T19:36:34.245Z,36.65
2024-02-29T19:39:02.519Z,36.13
2024-02-29T19:41:30.832Z,35.41
2024-02-29T19:43:59.012Z,36.52
2024-02-29T19:46:28.841Z,33.89
2024-02-29T19:48:57.264Z,32.88
2024-02-29T19:51:26.079Z,33.72
2024-02-29T19:53:54.333Z,34.19
2024-02-29T19:56:22.730Z,34.50
2024-02-29T19:58:50.912Z,34.98
2024-02-29T20:01:19.299Z,36.16
2024-02-29T20:03:47.829Z,37.72
2024-02-29T20:06:16.439Z,37.50
2024-02-29T20:08:44.732Z,38.41
2024-02-29T20:11:13.216Z,41.12
2024-02-29T20:13:41.621Z,40.14
2024-02-29T20:16:10.144Z,38.43
2024-02-29T20:18:38.925Z,37.85
2024-02-29T20:21:07.668Z,39.22
2024-02-29T20:23:35.873Z,41.03
2024-02-29T20:26:05.006Z,42.58
2024-02-29T20:28:33.328Z,43.92
2024-02-29T20:31:02.738Z,43.28
2024-02-29T20:33:30.934Z,45.11
2024-02-29T20:35:59.034Z,44.14
2024-02-29T20:38:27.203Z,43.87
2024-02-29T20:40:55.539Z,44.23
2024-02-29T20:43:23.727Z,44.65
2024-02-29T20:45:52.571Z,44.67
2024-02-29T20:48:20.793Z,46.18
2024-02-29T20:50:49.144Z,44.88
2024-02-29T20:53:17.568Z,45.21
2024-02-29T20:55:45.752Z,45.18
2024-02-29T20:58:15.932Z,44.63
2024-02-29T21:00:44.476Z,44.51
2024-02-29T21:03:12.924Z,46.19
2024-02-29T21:05:41.317Z,46.34
2024-02-29T21:08:09.793Z,45.66
2024-02-29T21:10:38.349Z,45.71
2024-02-29T21:13:06.589Z,45.67
2024-02-29T21:15:34.791Z,45.54
2024-02-29T21:18:04.167Z,45.04
2024-02-29T21:20:32.400Z,44.77
2024-02-29T21:23:01.107Z,44.79
2024-02-29T21:25:30.442Z,45.85
2024-02-29T21:27:59.245Z,45.93
2024-02-29T21:30:27.309Z,46.12
2024-02-29T21:32:55.819Z,45.66
2024-02-29T21:35:24.176Z,45.13
2024-02-29T21:37:52.791Z,44.74
2024-02-29T21:40:21.344Z,43.93
2024-02-29T21:42:52.111Z,44.02
2024-02-29T21:45:21.349Z,43.98
2024-02-29T21:47:49.691Z,42.32
2024-02-29T21:50:18.135Z,40.85
2024-02-29T21:52:46.426Z,41.40
2024-02-29T21:55:16.748Z,41.21
2024-02-29T21:57:45.115Z,40.98
2024-02-29T22:00:15.064Z,40.82
2024-02-29T22:02:43.654Z,41.33
2024-02-29T22:05:13.347Z,40.60
2024-02-29T22:07:41.963Z,38.83
2024-02-29T22:10:11.343Z,40.23
2024-02-29T22:12:39.742Z,39.70
2024-02-29T22:15:09.165Z,38.67
2024-02-29T22:17:38.276Z,40.39
2024-02-29T22:20:08.018Z,41.39
2024-02-29T22:22:36.825Z,42.13
2024-02-29T22:25:05.894Z,42.23
2024-02-29T22:27:34.088Z,42.30
2024-02-29T22:30:02.177Z,42.37
2024-02-29T22:32:30.439Z,42.80
2024-02-29T22:34:59.123Z,44.72
2024-02-29T22:37:27.585Z,43.89
2024-02-29T22:39:56.941Z,44.58
2024-02-29T22:42:25.445Z,44.21
2024-02-29T22:44:54.282Z,43.48
2024-02-29T22:47:22.566Z,45.26
2024-02-29T22:49:50.642Z,46.76
2024-02-29T22:52:18.824Z,47.75
2024-02-29T22:54:47.293Z,46.65
2024-02-29T22:57:15.863Z,47.65
2024-02-29T22:59:44.063Z,46.34
2024-02-29T23:02:12.209Z,44.69
2024-02-29T23:04:40.408Z,45.87
2024-02-29T23:07:09.280Z,46.11
2024-02-29T23:09:37.602Z,45.41
2024-02-29T23:12:06.097Z,48.04
2024-02-29T23:14:34.401Z,48.50
2024-02-29T23:17:03.318Z,50.59
2024-02-29T23:19:31.818Z,51.43
2024-02-29T23:22:00.843Z,49.84
2024-02-29T23:24:28.936Z,50.74
2024-02-29T23:26:57.007Z,49.29
2024-02-29T23:29:25.055Z,49.50
2024-02-29T23:31:53.374Z,50.30
2024-02-29T23:34:22.578Z,49.15
2024-02-29T23:36:51.834Z,48.81
2024-02-29T23:39:20.403Z,50.48
2024-02-29T23:41:48.736Z,50.00
2024-02-29T23:44:16.953Z,51.10
2024-02-29T23:46:45.307Z,51.19
2024-02-29T23:49:14.778Z,51.52
2024-02-29T23:51:43.398Z,51.01
2024-02-29T23:54:11.888Z,51.11
2024-02-29T23:56:40.111Z,51.89
2024-02-29T23:59:08.436Z,50.57
